createdAt,value
2018-11-14T00:00:53.431Z,7.17
2018-11-14T00:03:23.635Z,7.19
2018-11-14T00:05:54.083Z,7.17
2018-11-14T00:08:24.190Z,7.19
2018-11-14T00:10:54.227Z,7.37
2018-11-14T00:13:24.422Z,7.23
2018-11-14T00:15:54.488Z,7.10
2018-11-14T00:18:24.515Z,7.02
2018-11-14T00:20:54.398Z,6.99
2018-11-14T00:23:24.375Z,7.03
2018-11-14T00:25:54.555Z,7.08
2018-11-14T00:28:24.468Z,7.12
2018-11-14T00:30:54.590Z,7.11
2018-11-14T00:33:24.635Z,7.07
2018-11-14T00:35:54.670Z,7.14
2018-11-14T00:38:24.718Z,7.00
2018-11-14T00:40:54.826Z,7.14
2018-11-14T00:43:24.723Z,7.07
2018-11-14T00:45:54.804Z,7.06
2018-11-14T00:48:24.788Z,6.99
2018-11-14T00:50:54.785Z,7.08
2018-11-14T00:53:24.827Z,7.13
2018-11-14T00:55:54.946Z,7.11
2018-11-14T00:58:25.039Z,7.07
2018-11-14T01:00:54.940Z,7.15
2018-11-14T01:03:25.240Z,7.02
2018-11-14T01:05:55.570Z,7.06
2018-11-14T01:08:26.105Z,7.13
2018-11-14T01:10:56.148Z,7.29
2018-11-14T01:13:26.505Z,7.18
2018-11-14T01:15:56.482Z,7.15
2018-11-14T01:18:26.467Z,7.07
2018-11-14T01:20:56.550Z,7.02
2018-11-14T01:23:27.470Z,7.02
2018-11-14T01:25:57.539Z,6.96
2018-11-14T01:28:27.478Z,6.73
2018-11-14T01:30:57.577Z,6.99
2018-11-14T01:33:28.427Z,6.99
2018-11-14T01:35:58.682Z,7.00
2018-11-14T01:38:28.406Z,6.87
2018-11-14T01:40:58.443Z,6.86
2018-11-14T01:43:29.006Z,6.92
2018-11-14T01:45:58.989Z,7.04
2018-11-14T01:48:29.047Z,6.87
2018-11-14T01:50:59.063Z,6.29
2018-11-14T01:53:29.668Z,6.06
2018-11-14T01:55:59.687Z,6.40
2018-11-14T01:58:29.788Z,6.49
2018-11-14T02:00:59.778Z,5.94
2018-11-14T02:03:30.277Z,5.48
2018-11-14T02:06:00.507Z,5.27
2018-11-14T02:08:30.788Z,4.92
2018-11-14T02:11:00.919Z,4.67
2018-11-14T02:13:31.209Z,4.89
2018-11-14T02:16:01.160Z,5.21
2018-11-14T02:18:31.161Z,5.54
2018-11-14T02:21:01.226Z,5.53
2018-11-14T02:23:32.470Z,5.65
2018-11-14T02:26:02.446Z,5.62
2018-11-14T02:28:32.580Z,5.65
2018-11-14T02:31:02.664Z,5.74
2018-11-14T02:33:33.590Z,5.75
2018-11-14T02:36:03.593Z,5.61
2018-11-14T02:38:33.506Z,5.48
2018-11-14T02:41:03.515Z,5.76
2018-11-14T02:43:34.018Z,5.86
2018-11-14T02:46:03.944Z,5.81
2018-11-14T02:48:34.015Z,5.81
2018-11-14T02:51:14.671Z,5.84
2018-11-14T02:53:45.370Z,5.85
2018-11-14T02:56:15.246Z,5.70
2018-11-14T02:58:45.216Z,5.82
2018-11-14T03:01:15.202Z,5.82
2018-11-14T03:03:46.250Z,5.86
2018-11-14T03:06:16.556Z,5.87
2018-11-14T03:08:46.911Z,5.90
2018-11-14T03:11:16.907Z,5.74
2018-11-14T03:13:47.931Z,5.50
2018-11-14T03:16:17.897Z,5.74
2018-11-14T03:18:47.932Z,5.84
2018-11-14T03:21:18.011Z,5.85
2018-11-14T03:23:47.992Z,5.95
2018-11-14T03:26:18.008Z,5.98
2018-11-14T03:28:47.991Z,5.97
2018-11-14T03:31:18.044Z,5.94
2018-11-14T03:33:48.147Z,5.91
2018-11-14T03:36:19.297Z,5.97
2018-11-14T03:38:49.781Z,5.92
2018-11-14T03:41:19.858Z,5.92
2018-11-14T03:43:50.705Z,5.60
2018-11-14T03:46:20.702Z,5.60
2018-11-14T03:48:50.703Z,5.80
2018-11-14T03:51:20.689Z,5.68
2018-11-14T03:53:50.980Z,5.73
2018-11-14T03:56:20.809Z,5.58
2018-11-14T03:58:50.801Z,5.45
2018-11-14T04:01:20.889Z,5.56
2018-11-14T04:03:50.778Z,5.57
2018-11-14T04:06:21.088Z,5.51
2018-11-14T04:08:51.123Z,5.41
2018-11-14T04:11:21.034Z,5.31
2018-11-14T04:13:51.986Z,5.13
2018-11-14T04:16:21.970Z,5.20
2018-11-14T04:18:52.033Z,5.03
2018-11-14T04:21:22.204Z,4.86
2018-11-14T04:23:52.911Z,4.90
2018-11-14T04:26:22.807Z,4.45
2018-11-14T04:28:52.724Z,4.52
2018-11-14T04:31:22.796Z,4.79
2018-11-14T04:33:52.868Z,4.88
2018-11-14T04:36:22.926Z,4.66
2018-11-14T04:38:53.042Z,4.79
2018-11-14T04:41:23.064Z,4.98
2018-11-14T04:43:53.784Z,5.22
2018-11-14T04:46:23.894Z,5.31
2018-11-14T04:48:54.015Z,5.14
2018-11-14T04:51:23.955Z,3.33
2018-11-14T04:53:54.938Z,4.73
2018-11-14T04:56:24.992Z,4.81
2018-11-14T04:58:55.077Z,5.15
2018-11-14T05:01:24.980Z,5.32
2018-11-14T05:03:55.424Z,5.71
2018-11-14T05:06:25.529Z,5.64
2018-11-14T05:08:56.078Z,5.59
2018-11-14T05:11:26.065Z,5.62
2018-11-14T05:13:56.371Z,5.54
2018-11-14T05:16:26.447Z,6.06
2018-11-14T05:18:56.529Z,5.97
2018-11-14T05:21:26.618Z,6.12
2018-11-14T05:23:57.832Z,6.37
2018-11-14T05:26:27.922Z,6.10
2018-11-14T05:28:57.930Z,5.74
2018-11-14T05:31:27.930Z,5.77
2018-11-14T05:33:58.591Z,5.53
2018-11-14T05:36:28.637Z,5.65
2018-11-14T05:38:58.663Z,5.82
2018-11-14T05:41:28.679Z,6.50
2018-11-14T05:43:59.343Z,5.74
2018-11-14T05:46:29.320Z,5.67
2018-11-14T05:48:59.367Z,6.21
2018-11-14T05:51:29.401Z,6.28
2018-11-14T05:54:00.137Z,6.39
2018-11-14T05:56:30.441Z,6.39
2018-11-14T05:59:00.505Z,6.38
2018-11-14T06:01:30.481Z,6.37
2018-11-14T06:04:01.322Z,6.63
2018-11-14T06:06:31.572Z,7.10
2018-11-14T06:09:01.748Z,7.29
2018-11-14T06:11:31.806Z,7.42
2018-11-14T06:14:02.778Z,7.68
2018-11-14T06:16:36.700Z,7.92
2018-11-14T06:19:06.692Z,7.90
2018-11-14T06:21:36.626Z,7.47
2018-11-14T06:24:07.486Z,6.94
2018-11-14T06:26:37.543Z,6.36
2018-11-14T06:29:07.454Z,6.01
2018-11-14T06:31:37.497Z,6.94
2018-11-14T06:34:08.332Z,7.43
2018-11-14T06:36:38.377Z,7.53
2018-11-14T06:39:12.788Z,6.53
2018-11-14T06:41:42.917Z,8.04
2018-11-14T06:44:13.545Z,8.50
2018-11-14T06:46:43.648Z,8.50
2018-11-14T06:49:13.818Z,8.81
2018-11-14T06:51:43.833Z,9.15
2018-11-14T06:54:15.394Z,9.33
2018-11-14T06:56:45.419Z,9.55
2018-11-14T06:59:15.536Z,9.41
2018-11-14T07:01:45.531Z,9.65
2018-11-14T07:04:15.810Z,9.29
2018-11-14T07:06:46.244Z,9.10
2018-11-14T07:09:16.503Z,9.08
2018-11-14T07:11:46.644Z,9.19
2018-11-14T07:14:17.127Z,9.43
2018-11-14T07:16:47.177Z,9.68
2018-11-14T07:19:17.175Z,10.08
2018-11-14T07:21:47.136Z,10.33
2018-11-14T07:24:18.264Z,10.48
2018-11-14T07:26:48.185Z,10.49
2018-11-14T07:29:18.151Z,10.69
2018-11-14T07:31:48.189Z,11.00
2018-11-14T07:34:18.228Z,11.49
2018-11-14T07:36:48.426Z,12.10
2018-11-14T07:39:18.451Z,12.41
2018-11-14T07:41:48.482Z,12.92
2018-11-14T07:44:18.540Z,12.34
2018-11-14T07:46:48.469Z,12.89
2018-11-14T07:49:22.926Z,13.61
2018-11-14T07:51:57.000Z,13.05
2018-11-14T07:54:27.529Z,12.66
2018-11-14T07:56:59.446Z,12.63
2018-11-14T07:59:33.535Z,13.43
2018-11-14T08:02:03.625Z,14.19
2018-11-14T08:04:38.594Z,14.30
2018-11-14T08:07:08.867Z,13.59
2018-11-14T08:09:39.159Z,14.60
2018-11-14T08:12:09.277Z,14.30
2018-11-14T08:14:40.282Z,14.43
2018-11-14T08:17:10.306Z,14.76
2018-11-14T08:19:40.715Z,14.38
2018-11-14T08:22:10.995Z,15.09
2018-11-14T08:24:41.753Z,15.12
2018-11-14T08:27:11.951Z,15.59
2018-11-14T08:29:42.145Z,17.13
2018-11-14T08:32:12.223Z,17.68
2018-11-14T08:34:43.297Z,18.64
2018-11-14T08:37:13.359Z,17.78
2018-11-14T08:39:43.429Z,16.81
2018-11-14T08:42:13.512Z,17.25
2018-11-14T08:44:43.620Z,16.97
2018-11-14T08:47:13.789Z,17.63
2018-11-14T08:49:43.753Z,17.96
2018-11-14T08:52:13.924Z,18.61
2018-11-14T08:54:44.699Z,18.73
2018-11-14T08:57:15.866Z,18.36
2018-11-14T08:59:45.965Z,18.32
2018-11-14T09:02:16.178Z,19.11
2018-11-14T09:04:46.428Z,18.96
2018-11-14T09:07:16.901Z,18.92
2018-11-14T09:09:47.079Z,18.52
2018-11-14T09:12:17.385Z,18.96
2018-11-14T09:14:48.059Z,18.31
2018-11-14T09:17:18.208Z,18.14
2018-11-14T09:19:48.226Z,19.07
2018-11-14T09:22:18.223Z,19.68
2018-11-14T09:24:49.198Z,19.62
2018-11-14T09:27:19.407Z,20.80
2018-11-14T09:29:49.597Z,21.51
2018-11-14T09:32:19.681Z,21.70
2018-11-14T09:34:50.522Z,22.42
2018-11-14T09:37:20.670Z,21.72
2018-11-14T09:39:50.734Z,21.28
2018-11-14T09:42:20.663Z,21.31
2018-11-14T09:44:51.830Z,21.25
2018-11-14T09:47:22.010Z,21.64
2018-11-14T09:49:52.163Z,22.38
2018-11-14T09:52:22.201Z,22.38
2018-11-14T09:54:52.830Z,22.80
2018-11-14T09:57:23.037Z,23.49
2018-11-14T09:59:53.118Z,22.41
2018-11-14T10:02:23.198Z,22.28
2018-11-14T10:04:54.355Z,21.98
2018-11-14T10:07:24.588Z,22.48
2018-11-14T10:09:54.927Z,22.36
2018-11-14T10:12:25.083Z,23.46
2018-11-14T10:14:57.141Z,22.49
2018-11-14T10:17:27.184Z,23.11
2018-11-14T10:19:57.299Z,22.50
2018-11-14T10:22:27.362Z,23.20
2018-11-14T10:24:58.699Z,23.28
2018-11-14T10:27:28.819Z,23.07
2018-11-14T10:29:58.970Z,22.94
2018-11-14T10:32:28.900Z,23.34
2018-11-14T10:35:00.391Z,23.59
2018-11-14T10:37:30.617Z,23.79
2018-11-14T10:40:00.844Z,23.87
2018-11-14T10:42:30.824Z,22.21
2018-11-14T10:45:02.659Z,23.36
2018-11-14T10:47:32.758Z,21.86
2018-11-14T10:50:02.951Z,23.40
2018-11-14T10:52:32.928Z,22.89
2018-11-14T10:55:03.026Z,22.77
2018-11-14T10:57:33.088Z,23.44
2018-11-14T11:00:03.168Z,22.28
2018-11-14T11:02:38.068Z,22.32
2018-11-14T11:05:13.339Z,21.59
2018-11-14T11:07:48.616Z,21.87
2018-11-14T11:10:23.737Z,22.13
2018-11-14T11:12:58.755Z,21.84
2018-11-14T11:16:33.003Z,22.58
2018-11-14T11:19:03.083Z,22.18
2018-11-14T11:21:33.328Z,22.54
2018-11-14T11:24:05.862Z,22.40
2018-11-14T11:26:36.826Z,22.86
2018-11-14T11:29:11.487Z,22.48
2018-11-14T11:31:41.512Z,23.27
2018-11-14T11:34:12.604Z,23.50
2018-11-14T11:36:43.020Z,24.51
2018-11-14T11:39:16.198Z,24.41
2018-11-14T11:41:46.910Z,25.07
2018-11-14T11:44:17.679Z,25.05
2018-11-14T11:46:47.665Z,25.13
2018-11-14T11:49:17.731Z,24.83
2018-11-14T11:51:47.772Z,24.58
2018-11-14T11:54:18.515Z,24.57
2018-11-14T11:56:48.695Z,24.66
2018-11-14T11:59:18.937Z,25.49
2018-11-14T12:01:48.966Z,25.98
2018-11-14T12:04:19.122Z,26.50
2018-11-14T12:06:49.153Z,26.41
2018-11-14T12:09:19.281Z,26.51
2018-11-14T12:11:49.656Z,26.21
2018-11-14T12:14:20.479Z,26.29
2018-11-14T12:16:50.507Z,26.39
2018-11-14T12:19:20.547Z,26.11
2018-11-14T12:21:50.806Z,24.95
2018-11-14T12:24:21.601Z,25.57
2018-11-14T12:26:51.748Z,26.63
2018-11-14T12:29:21.837Z,26.77
2018-11-14T12:31:51.868Z,27.15
2018-11-14T12:34:21.936Z,26.98
2018-11-14T12:36:52.208Z,26.14
2018-11-14T12:39:22.366Z,26.96
2018-11-14T12:41:52.399Z,27.67
2018-11-14T12:44:22.524Z,27.09
2018-11-14T12:46:52.436Z,27.38
2018-11-14T12:49:22.469Z,25.81
2018-11-14T12:51:52.586Z,24.97
2018-11-14T12:54:23.690Z,24.81
2018-11-14T12:56:53.649Z,24.95
2018-11-14T12:59:23.942Z,24.06
2018-11-14T13:01:54.120Z,23.96
2018-11-14T13:04:24.898Z,20.61
2018-11-14T13:06:54.850Z,23.01
2018-11-14T13:09:25.078Z,22.24
2018-11-14T13:11:55.599Z,22.24
2018-11-14T13:14:26.317Z,22.36
2018-11-14T13:16:56.375Z,22.13
2018-11-14T13:19:26.486Z,22.34
2018-11-14T13:21:56.579Z,22.42
2018-11-14T13:24:27.659Z,21.97
2018-11-14T13:26:57.799Z,21.93
2018-11-14T13:29:27.839Z,21.57
2018-11-14T13:31:57.778Z,21.69
2018-11-14T13:34:28.194Z,22.00
2018-11-14T13:36:58.293Z,22.33
2018-11-14T13:39:28.276Z,21.42
2018-11-14T13:41:58.390Z,21.61
2018-11-14T13:44:28.855Z,22.17
2018-11-14T13:46:58.857Z,22.05
2018-11-14T13:49:29.029Z,22.24
2018-11-14T13:51:59.053Z,22.14
2018-11-14T13:54:29.453Z,22.17
2018-11-14T13:56:59.471Z,22.00
2018-11-14T13:59:29.957Z,21.85
2018-11-14T14:01:59.997Z,21.37
2018-11-14T14:04:31.125Z,21.55
2018-11-14T14:07:01.356Z,21.49
2018-11-14T14:09:31.715Z,20.37
2018-11-14T14:12:02.431Z,20.39
2018-11-14T14:14:33.203Z,19.79
2018-11-14T14:17:03.436Z,18.39
2018-11-14T14:19:33.660Z,19.18
2018-11-14T14:22:03.830Z,19.59
2018-11-14T14:24:34.029Z,18.95
2018-11-14T14:27:04.112Z,19.13
2018-11-14T14:29:34.228Z,19.08
2018-11-14T14:32:04.505Z,18.67
2018-11-14T14:34:35.460Z,17.26
2018-11-14T14:37:05.608Z,18.59
2018-11-14T14:39:35.746Z,18.49
2018-11-14T14:42:06.310Z,18.34
2018-11-14T14:44:36.667Z,18.17
2018-11-14T14:47:07.261Z,17.93
2018-11-14T14:49:37.292Z,17.65
2018-11-14T14:52:07.348Z,17.09
2018-11-14T14:54:37.297Z,17.08
2018-11-14T14:57:07.806Z,16.86
2018-11-14T14:59:37.975Z,16.69
2018-11-14T15:02:08.537Z,16.92
2018-11-14T15:04:40.106Z,16.76
2018-11-14T15:07:10.287Z,16.81
2018-11-14T15:09:40.465Z,16.60
2018-11-14T15:12:11.156Z,15.54
2018-11-14T15:14:42.153Z,15.84
2018-11-14T15:17:12.227Z,14.82
2018-11-14T15:19:42.331Z,13.81
2018-11-14T15:22:12.370Z,13.54
2018-11-14T15:24:42.666Z,13.71
2018-11-14T15:27:12.843Z,13.43
2018-11-14T15:29:43.048Z,13.40
2018-11-14T15:32:13.120Z,13.89
2018-11-14T15:34:44.060Z,13.61
2018-11-14T15:37:14.331Z,13.17
2018-11-14T15:39:44.783Z,13.09
2018-11-14T15:42:14.935Z,13.61
2018-11-14T15:44:45.515Z,14.16
2018-11-14T15:47:15.983Z,13.77
2018-11-14T15:49:46.303Z,13.50
2018-11-14T15:52:16.296Z,13.74
2018-11-14T15:54:47.136Z,14.02
2018-11-14T15:57:17.323Z,14.33
2018-11-14T15:59:47.498Z,14.41
2018-11-14T16:02:17.581Z,14.47
2018-11-14T16:04:48.678Z,14.39
2018-11-14T16:07:18.784Z,14.41
2018-11-14T16:09:49.074Z,14.37
2018-11-14T16:12:19.407Z,13.95
2018-11-14T16:14:50.327Z,14.16
2018-11-14T16:17:20.468Z,14.18
2018-11-14T16:19:51.796Z,14.22
2018-11-14T16:22:21.914Z,13.49
2018-11-14T16:24:52.154Z,13.54
2018-11-14T16:27:22.333Z,13.75
2018-11-14T16:29:52.674Z,13.52
2018-11-14T16:32:23.775Z,13.85
2018-11-14T16:34:53.958Z,13.70
2018-11-14T16:37:23.947Z,13.43
2018-11-14T16:39:54.101Z,13.64
2018-11-14T16:42:24.142Z,13.28
2018-11-14T16:44:54.560Z,12.61
2018-11-14T16:47:24.705Z,12.51
2018-11-14T16:49:54.857Z,12.97
2018-11-14T16:52:25.010Z,12.96
2018-11-14T16:54:56.023Z,12.33
2018-11-14T16:57:26.411Z,12.48
2018-11-14T16:59:56.415Z,12.13
2018-11-14T17:02:26.577Z,11.83
2018-11-14T17:04:56.592Z,11.72
2018-11-14T17:07:26.833Z,11.77
2018-11-14T17:09:57.080Z,11.65
2018-11-14T17:12:27.476Z,11.76
2018-11-14T17:14:58.659Z,12.44
2018-11-14T17:17:28.763Z,12.95
2018-11-14T17:19:58.900Z,13.05
2018-11-14T17:22:29.106Z,13.17
2018-11-14T17:25:00.346Z,13.38
2018-11-14T17:27:30.489Z,13.52
2018-11-14T17:30:00.587Z,13.65
2018-11-14T17:32:30.790Z,13.83
2018-11-14T17:35:01.164Z,13.76
2018-11-14T17:37:31.240Z,13.83
2018-11-14T17:40:01.293Z,13.91
2018-11-14T17:42:31.488Z,13.93
2018-11-14T17:45:02.065Z,13.91
2018-11-14T17:47:32.246Z,13.91
2018-11-14T17:50:02.297Z,14.01
2018-11-14T17:52:32.371Z,13.95
2018-11-14T17:55:03.255Z,13.56
2018-11-14T17:57:33.381Z,13.69
2018-11-14T18:00:03.578Z,13.61
2018-11-14T18:02:33.624Z,13.38
2018-11-14T18:05:04.797Z,13.49
2018-11-14T18:07:34.858Z,13.73
2018-11-14T18:10:05.785Z,13.70
2018-11-14T18:12:36.257Z,13.88
2018-11-14T18:15:07.484Z,13.94
2018-11-14T18:17:38.387Z,13.90
2018-11-14T18:20:11.506Z,13.80
2018-11-14T18:22:42.118Z,13.88
2018-11-14T18:25:13.150Z,13.88
2018-11-14T18:27:43.228Z,14.01
2018-11-14T18:30:24.433Z,13.77
2018-11-14T18:32:55.491Z,13.57
2018-11-14T18:35:26.660Z,13.92
2018-11-14T18:37:57.737Z,13.99
2018-11-14T18:40:29.465Z,14.10
2018-11-14T18:42:59.540Z,14.17
2018-11-14T18:45:36.028Z,14.17
2018-11-14T18:48:07.034Z,14.12
2018-11-14T18:50:37.125Z,13.96
2018-11-14T18:53:07.208Z,14.01
2018-11-14T18:55:38.352Z,13.81
2018-11-14T18:58:08.484Z,13.88
2018-11-14T19:00:38.460Z,14.00
2018-11-14T19:03:08.541Z,13.98
2018-11-14T19:05:39.876Z,14.05
2018-11-14T19:08:09.867Z,13.88
2018-11-14T19:10:40.204Z,13.95
2018-11-14T19:13:10.660Z,13.68
2018-11-14T19:15:41.829Z,13.78
2018-11-14T19:18:11.837Z,13.69
2018-11-14T19:20:41.980Z,13.27
2018-11-14T19:23:12.081Z,13.09
2018-11-14T19:25:42.062Z,12.66
2018-11-14T19:28:12.396Z,13.07
2018-11-14T19:30:42.635Z,13.28
2018-11-14T19:33:12.678Z,13.49
2018-11-14T19:35:42.925Z,13.20
2018-11-14T19:38:12.984Z,12.70
2018-11-14T19:40:43.028Z,12.80
2018-11-14T19:43:13.315Z,12.95
2018-11-14T19:45:44.388Z,13.11
2018-11-14T19:48:14.460Z,13.16
2018-11-14T19:50:44.461Z,13.28
2018-11-14T19:53:15.169Z,13.30
2018-11-14T19:55:46.082Z,13.31
2018-11-14T19:58:16.200Z,13.16
2018-11-14T20:00:46.446Z,13.05
2018-11-14T20:03:16.406Z,13.17
2018-11-14T20:05:47.417Z,13.10
2018-11-14T20:08:17.470Z,12.98
2018-11-14T20:10:47.925Z,13.09
2018-11-14T20:13:18.328Z,13.14
2018-11-14T20:15:48.936Z,12.86
2018-11-14T20:18:18.928Z,12.53
2018-11-14T20:20:49.011Z,12.35
2018-11-14T20:23:19.141Z,12.77
2018-11-14T20:25:49.849Z,13.03
2018-11-14T20:28:19.970Z,12.83
2018-11-14T20:30:50.140Z,12.83
2018-11-14T20:33:20.425Z,13.05
2018-11-14T20:35:51.710Z,13.04
2018-11-14T20:38:21.873Z,13.32
2018-11-14T20:40:52.009Z,13.22
2018-11-14T20:43:22.071Z,13.02
2018-11-14T20:45:52.485Z,13.39
2018-11-14T20:48:22.620Z,13.05
2018-11-14T20:50:52.635Z,12.79
2018-11-14T20:53:22.605Z,13.09
2018-11-14T20:55:53.983Z,13.26
2018-11-14T20:58:23.971Z,12.81
2018-11-14T21:00:54.054Z,12.54
2018-11-14T21:03:24.324Z,12.69
2018-11-14T21:05:54.598Z,12.90
2018-11-14T21:08:24.657Z,12.64
2018-11-14T21:10:54.878Z,12.77
2018-11-14T21:13:25.196Z,12.66
2018-11-14T21:15:55.547Z,13.16
2018-11-14T21:18:25.602Z,12.82
2018-11-14T21:20:55.641Z,12.58
2018-11-14T21:23:25.607Z,12.75
2018-11-14T21:25:56.296Z,12.62
2018-11-14T21:28:26.291Z,12.28
2018-11-14T21:30:56.332Z,12.31
2018-11-14T21:33:26.262Z,12.65
2018-11-14T21:35:57.551Z,12.13
2018-11-14T21:38:27.587Z,12.13
2018-11-14T21:40:57.571Z,12.04
2018-11-14T21:43:27.608Z,11.61
2018-11-14T21:45:58.861Z,11.41
2018-11-14T21:48:28.934Z,11.43
2018-11-14T21:50:59.027Z,11.11
2018-11-14T21:53:29.042Z,10.68
2018-11-14T21:55:59.288Z,11.26
2018-11-14T21:58:29.287Z,11.43
2018-11-14T22:00:59.413Z,11.59
2018-11-14T22:03:29.581Z,11.75
2018-11-14T22:06:00.403Z,11.87
2018-11-14T22:08:30.475Z,12.07
2018-11-14T22:11:00.905Z,11.96
2018-11-14T22:13:31.280Z,12.03
2018-11-14T22:16:02.134Z,11.89
2018-11-14T22:18:32.103Z,11.87
2018-11-14T22:21:02.367Z,11.88
2018-11-14T22:23:32.442Z,11.95
2018-11-14T22:26:03.029Z,12.12
2018-11-14T22:28:33.089Z,12.02
2018-11-14T22:31:03.155Z,12.00
2018-11-14T22:33:33.107Z,12.02
2018-11-14T22:36:03.750Z,12.13
2018-11-14T22:38:33.907Z,12.26
2018-11-14T22:41:03.952Z,12.42
2018-11-14T22:43:33.977Z,12.31
2018-11-14T22:46:04.648Z,12.22
2018-11-14T22:48:34.641Z,12.36
2018-11-14T22:51:04.771Z,12.19
2018-11-14T22:53:34.858Z,12.25
2018-11-14T22:56:05.384Z,12.29
2018-11-14T22:58:35.491Z,12.32
2018-11-14T23:01:05.625Z,12.28
2018-11-14T23:03:35.727Z,12.29
2018-11-14T23:06:06.745Z,12.25
2018-11-14T23:08:36.822Z,12.18
2018-11-14T23:11:07.170Z,12.10
2018-11-14T23:13:37.625Z,12.18
2018-11-14T23:16:08.196Z,12.11
2018-11-14T23:18:38.270Z,11.97
2018-11-14T23:21:08.320Z,11.82
2018-11-14T23:23:38.207Z,11.91
2018-11-14T23:26:08.836Z,11.94
2018-11-14T23:28:38.857Z,11.94
2018-11-14T23:31:08.983Z,11.86
2018-11-14T23:33:39.054Z,11.90
2018-11-14T23:36:09.554Z,11.83
2018-11-14T23:38:39.591Z,11.77
2018-11-14T23:41:09.643Z,11.77
2018-11-14T23:43:39.875Z,11.76
2018-11-14T23:46:09.890Z,11.64
2018-11-14T23:48:39.870Z,11.13
2018-11-14T23:51:09.935Z,11.29
2018-11-14T23:53:40.157Z,11.43
2018-11-14T23:56:10.542Z,11.49
2018-11-14T23:58:40.554Z,11.45
